Time;durP1;ratioP1;P1;durP2;ratioP2;P2;SDS_P1;SDS_P2;PMS_P1;PMS_P2;Temp;Humidity;BMP_temperature;BMP_pressure;BME280_temperature;BME280_humidity;BME280_pressure;Samples;Min_cycle;Max_cycle;Signal;HPM_P1;HPM_P2
2023/08/17 00:02:10;;;;;;;;;;;;;;;21.76;29.12;97903.31;4940169;29;1016;-76
2023/08/17 00:04:36;;;;;;;;;;;;;;;21.73;28.89;97920.38;4939768;29;993;-76
2023/08/17 00:07:01;;;;;;;;;;;;;;;21.72;29.01;97913.13;4939961;29;1000;-76
2023/08/17 00:09:27;;;;;;;;;;;;;;;21.82;28.92;97923.38;4939872;29;1051;-76
2023/08/17 00:11:52;;;;;;;;;;;;;;;21.71;29.10;97917.19;4939888;29;1020;-76
2023/08/17 00:14:18;;;;;;;;;;;;;;;21.88;28.68;97920.78;4939776;29;1028;-76
2023/08/17 00:16:43;;;;;;;;;;;;;;;21.81;29.00;97916.09;4939084;29;1259;-76
2023/08/17 00:19:09;;;;;;;;;;;;;;;22.14;28.39;97911.13;4943783;29;1964;-76
2023/08/17 00:21:35;;;;;;;;;;;;;;;22.04;28.38;97915.03;4960941;29;891;-77
2023/08/17 00:24:01;;;;;;;;;;;;;;;21.95;28.47;97912.06;4960995;29;1048;-76
2023/08/17 00:26:27;;;;;;;;;;;;;;;22.06;28.31;97915.38;4944191;29;892;-76
2023/08/17 00:28:53;;;;;;;;;;;;;;;21.66;28.95;97917.75;4960950;29;985;-77
2023/08/17 00:31:18;;;;;;;;;;;;;;;21.75;28.83;97912.22;4944181;29;963;-76
2023/08/17 00:33:44;;;;;;;;;;;;;;;21.94;28.52;97916.16;4958164;29;1115;-76
2023/08/17 00:36:09;;;;;;;;;;;;;;;21.94;28.69;97925.44;4958641;29;1007;-76
2023/08/17 00:38:35;;;;;;;;;;;;;;;21.98;28.54;97919.66;4919987;29;1986;-76
2023/08/17 00:41:00;;;;;;;;;;;;;;;21.81;28.70;97928.25;4904227;29;1067;-76
2023/08/17 00:43:26;;;;;;;;;;;;;;;21.68;28.87;97924.56;4919653;29;1253;-77
2023/08/17 00:45:51;;;;;;;;;;;;;;;21.91;28.43;97931.19;4894953;29;1173;-77
2023/08/17 00:48:17;;;;;;;;;;;;;;;21.88;28.46;97920.78;4900921;29;1171;-75
2023/08/17 00:50:42;;;;;;;;;;;;;;;21.73;28.76;97914.72;4901493;29;970;-76
2023/08/17 00:53:13;;;;;;;;;;;;;;;21.59;28.84;97910.25;4901087;29;973;-76
2023/08/17 00:55:38;;;;;;;;;;;;;;;21.84;28.90;97910.34;4885444;29;1312;-77
2023/08/17 00:58:04;;;;;;;;;;;;;;;22.02;28.27;97921.16;4885333;29;1047;-76
2023/08/17 01:00:29;;;;;;;;;;;;;;;21.75;28.63;97918.69;4900852;29;2054;-77
2023/08/17 01:02:57;;;;;;;;;;;;;;;21.85;28.59;97917.59;4885529;29;1127;-77
2023/08/17 01:05:23;;;;;;;;;;;;;;;21.73;28.93;97917.56;4886101;29;1071;-77
2023/08/17 01:07:48;;;;;;;;;;;;;;;21.63;28.79;97910.94;4881727;29;1629;-76
2023/08/17 01:10:14;;;;;;;;;;;;;;;21.91;28.60;97911.38;4910897;29;960;-76
2023/08/17 01:12:57;;;;;;;;;;;;;;;21.69;28.91;97914.03;4903993;29;1212;-76
2023/08/17 01:15:35;;;;;;;;;;;;;;;21.66;28.79;97903.59;4919292;29;966;-75
2023/08/17 01:18:00;;;;;;;;;;;;;;;21.68;28.95;97901.91;4919398;29;1083;-76
2023/08/17 01:20:26;;;;;;;;;;;;;;;21.83;28.71;97903.09;4976776;28;1987;-76
2023/08/17 01:22:53;;;;;;;;;;;;;;;21.87;28.65;97890.88;4962200;28;1124;-77
2023/08/17 01:25:19;;;;;;;;;;;;;;;21.69;28.92;97897.81;4979161;28;972;-76
2023/08/17 01:27:44;;;;;;;;;;;;;;;21.68;29.28;97884.91;4960573;28;1452;-76
2023/08/17 01:30:13;;;;;;;;;;;;;;;21.78;28.95;97888.69;4944713;28;1120;-76
2023/08/17 01:32:48;;;;;;;;;;;;;;;21.53;29.51;97895.06;4976785;28;996;-77
2023/08/17 01:35:16;;;;;;;;;;;;;;;21.58;29.45;97886.00;4976774;28;928;-76
2023/08/17 01:37:42;;;;;;;;;;;;;;;21.64;29.11;97886.25;4976434;28;1106;-76
2023/08/17 01:40:08;;;;;;;;;;;;;;;21.60;29.28;97880.69;4960531;28;1914;-76
2023/08/17 01:42:33;;;;;;;;;;;;;;;21.71;28.83;97889.69;4960224;28;1065;-76
2023/08/17 01:44:58;;;;;;;;;;;;;;;21.77;29.02;97893.56;4944413;28;1104;-76
2023/08/17 01:47:24;;;;;;;;;;;;;;;21.78;28.97;97888.69;4937636;29;1324;-75
2023/08/17 01:49:50;;;;;;;;;;;;;;;21.73;29.15;97877.91;4922202;29;1231;-76
2023/08/17 01:52:15;;;;;;;;;;;;;;;21.70;29.05;97882.41;4921987;29;1336;-76
2023/08/17 01:54:41;;;;;;;;;;;;;;;21.70;28.87;97888.09;4922092;29;1133;-76
2023/08/17 01:57:06;;;;;;;;;;;;;;;21.69;28.98;97892.16;4902518;29;1092;-77
2023/08/17 01:59:32;;;;;;;;;;;;;;;21.62;29.14;97886.72;4871651;29;1984;-76
2023/08/17 02:01:57;;;;;;;;;;;;;;;21.53;29.43;97886.56;4899639;29;1067;-76
2023/08/17 02:04:24;;;;;;;;;;;;;;;21.61;29.04;97887.97;4868987;29;1006;-76
2023/08/17 02:06:50;;;;;;;;;;;;;;;21.59;29.54;97881.94;4883933;29;963;-77
2023/08/17 02:09:15;;;;;;;;;;;;;;;21.69;29.29;97880.84;4884091;29;1091;-76
2023/08/17 02:11:41;;;;;;;;;;;;;;;21.83;28.88;97888.13;4884317;29;998;-76
2023/08/17 02:14:06;;;;;;;;;;;;;;;21.56;29.22;97888.50;4868211;29;1118;-76
2023/08/17 02:16:32;;;;;;;;;;;;;;;21.62;29.35;97881.06;4884011;29;1063;-76
2023/08/17 02:18:57;;;;;;;;;;;;;;;21.53;29.24;97883.72;4882978;29;1914;-76
2023/08/17 02:21:24;;;;;;;;;;;;;;;21.69;29.18;97880.84;4868608;29;1142;-76
2023/08/17 02:23:49;;;;;;;;;;;;;;;21.60;29.10;97883.50;4899232;29;925;-76
2023/08/17 02:26:15;;;;;;;;;;;;;;;21.85;28.84;97875.09;4899057;29;989;-76
2023/08/17 02:28:40;;;;;;;;;;;;;;;21.65;28.99;97874.47;4880481;29;1119;-76
2023/08/17 02:31:06;;;;;;;;;;;;;;;21.61;28.90;97878.69;4880726;29;1082;-76
2023/08/17 02:33:33;;;;;;;;;;;;;;;21.66;28.86;97876.09;4880274;29;1064;-76
2023/08/17 02:35:59;;;;;;;;;;;;;;;21.92;28.55;97881.81;4880168;29;1158;-77
2023/08/17 02:38:24;;;;;;;;;;;;;;;21.52;29.36;97871.63;4885645;29;1989;-76
2023/08/17 02:40:50;;;;;;;;;;;;;;;21.56;29.28;97868.69;4921106;29;1141;-77
2023/08/17 02:43:15;;;;;;;;;;;;;;;21.62;28.96;97875.38;4920857;29;1014;-76
2023/08/17 02:45:41;;;;;;;;;;;;;;;21.84;28.71;97881.22;4916085;29;1127;-76
2023/08/17 02:48:07;;;;;;;;;;;;;;;21.88;28.82;97881.13;4917637;29;1129;-76
2023/08/17 02:50:32;;;;;;;;;;;;;;;21.82;28.77;97878.84;4918099;29;927;-76
2023/08/17 02:52:58;;;;;;;;;;;;;;;21.63;28.82;97882.63;4902172;29;978;-77
2023/08/17 02:55:23;;;;;;;;;;;;;;;21.73;28.73;97875.88;4901891;29;1152;-77
2023/08/17 02:57:49;;;;;;;;;;;;;;;21.74;28.88;97877.44;4902001;29;1182;-77
2023/08/17 03:00:14;;;;;;;;;;;;;;;21.68;28.71;97884.91;4946908;29;1986;-77
2023/08/17 03:02:40;;;;;;;;;;;;;;;21.68;29.07;97879.25;4941520;29;1137;-76
2023/08/17 03:05:06;;;;;;;;;;;;;;;21.83;28.68;97885.31;4940982;29;1093;-77
2023/08/17 03:07:31;;;;;;;;;;;;;;;21.71;28.89;97884.03;4925347;29;1324;-77
2023/08/17 03:09:57;;;;;;;;;;;;;;;21.61;29.05;97873.81;4940721;29;1221;-76
2023/08/17 03:12:22;;;;;;;;;;;;;;;21.61;28.95;97873.81;4957957;29;917;-76
2023/08/17 03:14:48;;;;;;;;;;;;;;;21.64;28.86;97861.56;4941009;29;860;-77
2023/08/17 03:17:14;;;;;;;;;;;;;;;21.93;28.56;97866.41;4924083;29;1352;-77
2023/08/17 03:19:40;;;;;;;;;;;;;;;21.58;29.20;97869.81;4925092;29;1970;-77
2023/08/17 03:22:05;;;;;;;;;;;;;;;21.58;29.12;97869.03;4958121;29;1039;-76
2023/08/17 03:24:31;;;;;;;;;;;;;;;21.65;29.20;97874.47;4956616;29;1008;-76
2023/08/17 03:26:57;;;;;;;;;;;;;;;21.53;29.20;97872.41;4936338;29;1240;-76
2023/08/17 03:29:25;;;;;;;;;;;;;;;21.70;28.75;97876.75;4951923;28;1212;-77
2023/08/17 03:31:51;;;;;;;;;;;;;;;21.77;28.86;97879.41;4936495;29;1259;-76
2023/08/17 03:34:17;;;;;;;;;;;;;;;21.68;29.02;97872.78;4936343;29;931;-76
2023/08/17 03:36:43;;;;;;;;;;;;;;;21.60;29.05;97877.84;4935135;29;1707;-77
2023/08/17 03:39:08;;;;;;;;;;;;;;;21.86;28.67;97878.72;4916738;29;1902;-76
2023/08/17 03:41:36;;;;;;;;;;;;;;;21.77;28.66;97876.56;4901620;29;1209;-76
2023/08/17 03:44:03;;;;;;;;;;;;;;;21.77;28.99;97876.56;4886365;29;1312;-76
2023/08/17 03:46:29;;;;;;;;;;;;;;;21.98;28.58;97885.69;4881633;29;1182;-76
2023/08/17 03:48:55;;;;;;;;;;;;;;;21.75;29.03;97896.03;4936193;29;1037;-76
2023/08/17 03:51:20;;;;;;;;;;;;;;;21.81;29.12;97888.59;4920478;29;1043;-77
2023/08/17 03:53:46;;;;;;;;;;;;;;;21.91;28.79;97897.19;4878132;29;1771;-77
2023/08/17 03:56:11;;;;;;;;;;;;;;;21.83;29.09;97896.63;4864281;29;1621;-76
2023/08/17 03:58:37;;;;;;;;;;;;;;;21.94;28.83;97899.16;4863072;29;1982;-77
2023/08/17 04:01:06;;;;;;;;;;;;;;;21.85;29.17;97896.97;4882674;29;1346;-77
2023/08/17 04:03:33;;;;;;;;;;;;;;;21.68;29.36;97901.91;4882627;29;1139;-76
2023/08/17 04:06:04;;;;;;;;;;;;;;;21.89;29.02;97899.69;4886744;29;1594;-77
2023/08/17 04:08:29;;;;;;;;;;;;;;;21.92;29.04;97898.81;4911425;29;1407;-77
2023/08/17 04:10:55;;;;;;;;;;;;;;;21.86;29.16;97904.22;4916920;29;1143;-76
2023/08/17 04:13:22;;;;;;;;;;;;;;;21.57;29.69;97905.03;4901200;29;1208;-76
2023/08/17 04:15:47;;;;;;;;;;;;;;;21.81;29.24;97902.75;4879246;29;1004;-77
2023/08/17 04:18:13;;;;;;;;;;;;;;;21.86;29.28;97901.38;4879247;29;1006;-76
2023/08/17 04:20:38;;;;;;;;;;;;;;;21.58;29.41;97905.84;4847397;29;1908;-77
2023/08/17 04:23:04;;;;;;;;;;;;;;;21.64;29.58;97909.69;4859327;29;1785;-77
2023/08/17 04:25:31;;;;;;;;;;;;;;;21.82;29.29;97907.16;4845458;29;1208;-76
2023/08/17 04:27:56;;;;;;;;;;;;;;;21.84;29.38;97910.34;4860647;29;1226;-77
2023/08/17 04:30:23;;;;;;;;;;;;;;;21.79;29.33;97910.88;4863783;29;1050;-76
2023/08/17 04:32:54;;;;;;;;;;;;;;;21.57;30.08;97907.09;4864324;29;1078;-77
2023/08/17 04:35:20;;;;;;;;;;;;;;;21.73;29.69;97903.41;4863853;29;1143;-76
2023/08/17 04:37:47;;;;;;;;;;;;;;;21.53;30.15;97907.16;4878061;29;1771;-76
2023/08/17 04:40:13;;;;;;;;;;;;;;;21.62;30.04;97909.38;4849872;29;1903;-77
2023/08/17 04:42:39;;;;;;;;;;;;;;;21.65;29.88;97916.94;4814663;29;1234;-77
2023/08/17 04:45:05;;;;;;;;;;;;;;;21.57;29.96;97912.75;4830069;29;1359;-76
2023/08/17 04:47:33;;;;;;;;;;;;;;;21.54;30.10;97905.94;4859905;29;1153;-76
2023/08/17 04:49:58;;;;;;;;;;;;;;;21.75;29.77;97918.69;4882571;29;1017;-76
2023/08/17 04:52:24;;;;;;;;;;;;;;;21.89;29.59;97911.03;4882569;29;1207;-76
2023/08/17 04:54:49;;;;;;;;;;;;;;;21.73;29.75;97924.00;4895306;29;1876;-76
2023/08/17 04:57:15;;;;;;;;;;;;;;;21.68;29.63;97918.09;4884631;29;2158;-77
2023/08/17 04:59:41;;;;;;;;;;;;;;;21.81;29.42;97916.91;4909961;29;1915;-75
2023/08/17 05:02:07;;;;;;;;;;;;;;;21.99;28.98;97909.94;4925004;29;1885;-76
2023/08/17 05:04:33;;;;;;;;;;;;;;;21.91;29.10;97917.03;4937233;29;1881;-76
2023/08/17 05:06:59;;;;;;;;;;;;;;;21.83;29.36;97908.75;4905912;29;2138;-77
2023/08/17 05:09:24;;;;;;;;;;;;;;;21.99;29.14;97915.59;4906722;29;1609;-76
2023/08/17 05:11:51;;;;;;;;;;;;;;;21.94;28.89;97907.66;4937929;29;1249;-77
2023/08/17 05:14:17;;;;;;;;;;;;;;;21.75;29.40;97910.19;4941713;29;1421;-76
2023/08/17 05:16:42;;;;;;;;;;;;;;;21.89;29.16;97900.50;4922548;29;1086;-76
2023/08/17 05:19:08;;;;;;;;;;;;;;;21.91;28.95;97897.19;4951357;29;1983;-77
2023/08/17 05:21:34;;;;;;;;;;;;;;;21.64;29.40;97901.22;4938497;29;1079;-76
2023/08/17 05:24:02;;;;;;;;;;;;;;;21.73;29.55;97894.91;4938337;29;1280;-76
2023/08/17 05:26:28;;;;;;;;;;;;;;;21.87;29.16;97897.31;4938438;29;1536;-77
2023/08/17 05:28:53;;;;;;;;;;;;;;;21.90;29.17;97906.94;4938347;29;1211;-76
2023/08/17 05:31:19;;;;;;;;;;;;;;;21.79;29.35;97908.06;4938215;29;1160;-76
2023/08/17 05:33:47;;;;;;;;;;;;;;;22.01;29.10;97913.09;4937651;29;1578;-77
2023/08/17 05:36:13;;;;;;;;;;;;;;;21.69;29.59;97903.50;4895684;29;1793;-76
2023/08/17 05:38:38;;;;;;;;;;;;;;;21.60;29.74;97917.50;4869246;29;1993;-76
2023/08/17 05:41:04;;;;;;;;;;;;;;;21.73;29.49;97909.84;4900340;29;1146;-76
2023/08/17 05:43:30;;;;;;;;;;;;;;;21.73;29.28;97909.84;4900252;29;980;-77
2023/08/17 05:45:57;;;;;;;;;;;;;;;21.55;29.66;97909.53;4884408;29;1132;-77
2023/08/17 05:48:22;;;;;;;;;;;;;;;21.90;29.36;97909.78;4896592;29;2034;-76
2023/08/17 05:50:48;;;;;;;;;;;;;;;21.85;29.69;97911.91;4917837;29;1585;-76
2023/08/17 05:53:14;;;;;;;;;;;;;;;22.01;29.31;97907.41;4887200;29;1081;-76
2023/08/17 05:55:39;;;;;;;;;;;;;;;21.91;29.54;97909.31;4903363;29;969;-76
2023/08/17 05:58:05;;;;;;;;;;;;;;;21.96;29.68;97910.81;4918921;29;1171;-77
2023/08/17 06:00:30;;;;;;;;;;;;;;;21.97;29.44;97901.88;4903001;29;1911;-76
2023/08/17 06:03:00;;;;;;;;;;;;;;;22.07;29.58;97906.44;4918633;29;925;-76
2023/08/17 06:05:27;;;;;;;;;;;;;;;21.87;30.09;97905.03;4909264;29;1772;-77
2023/08/17 06:07:52;;;;;;;;;;;;;;;22.06;29.71;97909.69;4944741;29;1556;-77
2023/08/17 06:10:18;;;;;;;;;;;;;;;21.75;30.22;97912.22;4957950;29;1019;-76
2023/08/17 06:12:44;;;;;;;;;;;;;;;21.79;30.34;97919.38;4941917;29;934;-76
2023/08/17 06:15:09;;;;;;;;;;;;;;;21.75;30.42;97907.34;4957797;29;938;-77
2023/08/17 06:17:35;;;;;;;;;;;;;;;22.03;30.13;97917.06;4941818;29;1132;-76
2023/08/17 06:20:02;;;;;;;;;;;;;;;21.89;30.39;97911.03;4967037;28;1915;-76
2023/08/17 06:22:28;;;;;;;;;;;;;;;22.03;30.26;97904.94;4976479;28;2094;-77
2023/08/17 06:24:53;;;;;;;;;;;;;;;21.78;30.81;97903.63;4978015;28;987;-78
2023/08/17 06:27:19;;;;;;;;;;;;;;;21.88;30.54;97903.78;4978375;28;997;-76
2023/08/17 06:29:44;;;;;;;;;;;;;;;21.76;30.97;97908.97;4978091;28;927;-77
2023/08/17 06:32:10;;;;;;;;;;;;;;;21.84;30.74;97921.66;4936959;29;1471;-75
2023/08/17 06:34:35;;;;;;;;;;;;;;;21.70;31.33;97922.06;4937033;29;933;-76
2023/08/17 06:37:02;;;;;;;;;;;;;;;21.89;31.04;97917.50;4936366;29;1427;-76
2023/08/17 06:39:27;;;;;;;;;;;;;;;21.81;31.15;97916.91;4936827;29;1907;-76
2023/08/17 06:41:53;;;;;;;;;;;;;;;21.99;30.89;97921.25;4937139;29;973;-76
2023/08/17 06:44:19;;;;;;;;;;;;;;;22.05;30.73;97916.63;4921237;29;934;-76
2023/08/17 06:46:44;;;;;;;;;;;;;;;21.90;30.59;97909.78;4936832;29;1135;-77
2023/08/17 06:49:10;;;;;;;;;;;;;;;22.10;30.25;97913.22;4937119;29;935;-77
2023/08/17 06:51:36;;;;;;;;;;;;;;;22.00;30.54;97909.47;4920360;29;1764;-76
2023/08/17 06:54:01;;;;;;;;;;;;;;;22.12;30.41;97912.81;4936900;29;1020;-77
2023/08/17 06:56:27;;;;;;;;;;;;;;;21.94;30.90;97914.09;4936942;29;1029;-77
2023/08/17 06:58:52;;;;;;;;;;;;;;;22.18;30.39;97908.97;4936688;29;1895;-76
2023/08/17 07:01:18;;;;;;;;;;;;;;;22.12;30.50;97907.91;4937017;29;981;-76
2023/08/17 07:03:43;;;;;;;;;;;;;;;22.00;30.66;97920.78;4935072;29;977;-76
2023/08/17 07:06:09;;;;;;;;;;;;;;;22.08;30.50;97908.03;4957616;29;2200;-77
2023/08/17 07:08:35;;;;;;;;;;;;;;;22.23;30.22;97925.41;4909258;29;1195;-76
2023/08/17 07:11:01;;;;;;;;;;;;;;;21.90;30.95;97935.28;4940919;29;955;-76
2023/08/17 07:13:26;;;;;;;;;;;;;;;22.20;30.42;97931.97;4941293;29;1006;-77
2023/08/17 07:15:52;;;;;;;;;;;;;;;22.18;30.25;97942.97;4940949;29;923;-76
2023/08/17 07:18:17;;;;;;;;;;;;;;;21.97;30.73;97935.88;4940898;29;1042;-77
2023/08/17 07:20:43;;;;;;;;;;;;;;;22.04;30.46;97940.53;4939957;29;1911;-77
2023/08/17 07:23:08;;;;;;;;;;;;;;;21.88;30.90;97943.44;4957632;29;927;-76
2023/08/17 07:25:34;;;;;;;;;;;;;;;22.05;30.28;97931.56;4957807;29;898;-76
2023/08/17 07:27:59;;;;;;;;;;;;;;;22.14;30.46;97950.78;4957577;29;1028;-77
2023/08/17 07:30:25;;;;;;;;;;;;;;;21.84;30.70;97947.16;4957574;29;932;-75
2023/08/17 07:32:51;;;;;;;;;;;;;;;22.08;30.30;97952.56;4939563;29;1006;-76
2023/08/17 07:35:16;;;;;;;;;;;;;;;22.21;30.39;97959.06;4957244;29;1629;-76
2023/08/17 07:37:42;;;;;;;;;;;;;;;21.84;31.02;97954.84;4957130;29;1542;-76
2023/08/17 07:40:08;;;;;;;;;;;;;;;21.88;31.18;97954.78;4957651;29;1979;-77
2023/08/17 07:42:33;;;;;;;;;;;;;;;21.83;31.04;97951.25;4957630;29;967;-76
2023/08/17 07:44:59;;;;;;;;;;;;;;;21.70;31.20;97944.72;4957699;29;952;-76
2023/08/17 07:47:25;;;;;;;;;;;;;;;21.95;31.18;97954.56;4942795;28;1118;-76
2023/08/17 07:49:50;;;;;;;;;;;;;;;21.90;31.25;97960.78;4976967;28;888;-76
2023/08/17 07:52:16;;;;;;;;;;;;;;;22.22;30.47;97954.97;4958986;28;1620;-76
2023/08/17 07:54:41;;;;;;;;;;;;;;;22.12;30.60;97950.44;4975786;28;1875;-76
2023/08/17 07:57:07;;;;;;;;;;;;;;;22.14;30.56;97950.78;4977149;28;966;-76
2023/08/17 07:59:32;;;;;;;;;;;;;;;22.15;30.75;97952.38;4959807;28;1918;-76
2023/08/17 08:01:58;;;;;;;;;;;;;;;21.72;31.30;97947.91;4959525;28;944;-77
2023/08/17 08:04:23;;;;;;;;;;;;;;;22.07;30.54;97948.94;4976930;28;1095;-76
2023/08/17 08:06:48;;;;;;;;;;;;;;;21.85;31.11;97948.75;4976622;28;931;-76
2023/08/17 08:09:14;;;;;;;;;;;;;;;22.10;30.74;97944.41;4959296;28;1572;-76
2023/08/17 08:11:39;;;;;;;;;;;;;;;22.18;30.48;97945.81;4976804;28;983;-76
2023/08/17 08:14:05;;;;;;;;;;;;;;;21.95;31.03;97934.72;4959627;28;984;-76
2023/08/17 08:16:30;;;;;;;;;;;;;;;21.87;31.21;97936.97;4962439;28;978;-76
2023/08/17 08:18:56;;;;;;;;;;;;;;;22.09;30.76;97948.47;4963112;28;1903;-77
2023/08/17 08:21:22;;;;;;;;;;;;;;;22.10;31.03;97938.72;4979993;28;868;-77
2023/08/17 08:23:47;;;;;;;;;;;;;;;22.06;30.83;97943.69;4962463;28;1768;-76
2023/08/17 08:26:13;;;;;;;;;;;;;;;21.95;31.20;97929.84;4980386;28;985;-75
2023/08/17 08:28:39;;;;;;;;;;;;;;;21.96;31.01;97936.31;4980709;28;1034;-76
2023/08/17 08:31:04;;;;;;;;;;;;;;;22.14;30.88;97939.47;4963092;28;940;-76
2023/08/17 08:33:30;;;;;;;;;;;;;;;22.19;30.48;97941.72;4962600;28;987;-76
2023/08/17 08:35:55;;;;;;;;;;;;;;;22.25;30.20;97939.91;4980059;28;869;-76
2023/08/17 08:38:21;;;;;;;;;;;;;;;22.12;30.83;97941.94;4979649;28;1537;-77
2023/08/17 08:40:47;;;;;;;;;;;;;;;22.23;30.72;97939.59;4979942;28;1983;-75
2023/08/17 08:43:12;;;;;;;;;;;;;;;22.04;30.80;97932.03;4947020;28;909;-76
2023/08/17 08:45:38;;;;;;;;;;;;;;;22.23;30.69;97925.41;4946768;28;1635;-77
2023/08/17 08:48:04;;;;;;;;;;;;;;;22.22;30.79;97923.81;4946021;28;1797;-77
2023/08/17 08:50:31;;;;;;;;;;;;;;;22.17;30.68;97927.19;4942102;29;1066;-77
2023/08/17 08:53:00;;;;;;;;;;;;;;;22.00;30.99;97939.84;4942149;29;1054;-76
2023/08/17 08:55:27;;;;;;;;;;;;;;;22.10;30.81;97938.72;4941528;29;1761;-76
2023/08/17 08:57:53;;;;;;;;;;;;;;;22.02;31.13;97934.50;4942169;29;1030;-76
2023/08/17 09:00:18;;;;;;;;;;;;;;;21.78;31.56;97922.66;4941871;29;1910;-76
2023/08/17 09:02:44;;;;;;;;;;;;;;;21.99;31.08;97921.25;4941849;29;1026;-77
2023/08/17 09:05:10;;;;;;;;;;;;;;;22.14;30.80;97930.94;4941649;29;1112;-76
2023/08/17 09:07:35;;;;;;;;;;;;;;;21.92;31.03;97938.47;4942083;29;1085;-77
2023/08/17 09:10:01;;;;;;;;;;;;;;;22.17;30.91;97944.22;4956687;29;2153;-75
2023/08/17 09:12:27;;;;;;;;;;;;;;;22.21;30.74;97939.22;4941676;29;1624;-77
2023/08/17 09:14:52;;;;;;;;;;;;;;;22.20;30.64;97931.97;4941923;29;968;-76
2023/08/17 09:17:24;;;;;;;;;;;;;;;22.14;30.70;97939.47;4941826;29;986;-76
2023/08/17 09:19:50;;;;;;;;;;;;;;;22.09;31.08;97937.16;4941592;29;1989;-76
2023/08/17 09:22:25;;;;;;;;;;;;;;;22.16;30.98;97931.28;4975378;28;1038;-76
2023/08/17 09:24:50;;;;;;;;;;;;;;;22.12;31.01;97930.59;4946010;28;1353;-76
2023/08/17 09:27:16;;;;;;;;;;;;;;;22.41;30.26;97941.88;4959397;28;1573;-77
2023/08/17 09:29:45;;;;;;;;;;;;;;;22.22;30.62;97940.81;4942688;29;1292;-77
2023/08/17 09:32:11;;;;;;;;;;;;;;;22.42;30.35;97942.66;4958707;29;873;-77
2023/08/17 09:34:37;;;;;;;;;;;;;;;22.23;30.69;97942.44;4961697;28;1406;-76
2023/08/17 09:37:05;;;;;;;;;;;;;;;22.07;31.13;97934.78;4960831;28;1596;-77
2023/08/17 09:39:31;;;;;;;;;;;;;;;22.15;31.01;97941.03;4976828;28;1914;-76
2023/08/17 09:41:56;;;;;;;;;;;;;;;22.24;30.95;97948.88;4958594;28;964;-76
2023/08/17 09:44:22;;;;;;;;;;;;;;;22.25;30.93;97939.91;4951329;28;1895;-76
2023/08/17 09:46:47;;;;;;;;;;;;;;;22.27;31.04;97930.97;4961378;28;1040;-76
2023/08/17 09:49:13;;;;;;;;;;;;;;;22.28;30.94;97932.56;4961371;28;924;-76
2023/08/17 09:51:42;;;;;;;;;;;;;;;22.19;31.18;97938.91;4961805;28;966;-76
2023/08/17 09:54:08;;;;;;;;;;;;;;;22.23;30.97;97931.09;4961329;28;1074;-76
2023/08/17 09:56:33;;;;;;;;;;;;;;;22.13;31.30;97928.56;4940828;29;1894;-76
2023/08/17 09:58:59;;;;;;;;;;;;;;;22.35;30.85;97941.63;4941790;29;1975;-76
2023/08/17 10:01:25;;;;;;;;;;;;;;;22.36;30.91;97933.94;4956729;29;989;-77
2023/08/17 10:03:50;;;;;;;;;;;;;;;22.43;30.86;97924.41;4973135;28;948;-76
2023/08/17 10:06:17;;;;;;;;;;;;;;;22.24;31.13;97932.69;4972739;28;954;-76
2023/08/17 10:08:43;;;;;;;;;;;;;;;22.46;30.73;97929.19;4972608;28;944;-76
2023/08/17 10:11:09;;;;;;;;;;;;;;;22.32;30.90;97934.03;4940128;29;1390;-76
2023/08/17 10:13:35;;;;;;;;;;;;;;;22.47;30.79;97930.75;4925053;29;967;-76
2023/08/17 10:16:10;;;;;;;;;;;;;;;22.43;30.65;97942.19;4955482;29;2013;-76
2023/08/17 10:18:42;;;;;;;;;;;;;;;22.25;30.88;97917.25;4955171;29;1613;-77
2023/08/17 10:21:13;;;;;;;;;;;;;;;22.14;30.95;97922.44;4956239;29;1893;-77
2023/08/17 10:23:38;;;;;;;;;;;;;;;22.22;30.98;97928.69;4940745;29;1056;-76
2023/08/17 10:26:04;;;;;;;;;;;;;;;22.43;30.63;97927.22;4939151;29;1871;-77
2023/08/17 10:28:30;;;;;;;;;;;;;;;22.05;31.17;97930.78;4937211;29;1413;-76
2023/08/17 10:30:56;;;;;;;;;;;;;;;22.13;30.94;97928.56;4921369;29;993;-76
2023/08/17 10:33:21;;;;;;;;;;;;;;;22.11;31.09;97934.69;4919155;29;1132;-76
2023/08/17 10:35:47;;;;;;;;;;;;;;;22.21;31.01;97927.91;4937308;29;984;-77
2023/08/17 10:38:12;;;;;;;;;;;;;;;22.05;31.40;97930.78;4920839;29;1856;-76
2023/08/17 10:40:40;;;;;;;;;;;;;;;22.20;30.85;97926.31;4920721;29;1990;-76
2023/08/17 10:43:06;;;;;;;;;;;;;;;22.32;30.86;97928.34;4936833;29;1048;-76
2023/08/17 10:45:34;;;;;;;;;;;;;;;22.28;31.08;97930.53;4920766;29;1321;-76
2023/08/17 10:48:08;;;;;;;;;;;;;;;22.08;31.33;97929.91;4921260;29;1037;-75
2023/08/17 10:50:37;;;;;;;;;;;;;;;22.17;31.11;97927.19;4936776;29;1015;-75
2023/08/17 10:53:09;;;;;;;;;;;;;;;21.98;31.53;97916.84;4921022;29;1087;-77
2023/08/17 10:55:35;;;;;;;;;;;;;;;22.33;31.06;97924.31;4867772;29;1187;-75
2023/08/17 10:58:02;;;;;;;;;;;;;;;22.49;30.82;97908.44;4898598;29;1637;-75
2023/08/17 11:00:34;;;;;;;;;;;;;;;22.31;31.12;97915.44;4903348;29;1997;-76
2023/08/17 11:03:07;;;;;;;;;;;;;;;22.23;30.88;97919.75;4921461;29;916;-75
2023/08/17 11:05:43;;;;;;;;;;;;;;;22.34;31.09;97920.22;4921201;29;1001;-75
2023/08/17 11:08:09;;;;;;;;;;;;;;;22.54;30.77;97916.38;4936873;29;918;-76
2023/08/17 11:10:35;;;;;;;;;;;;;;;22.14;31.40;97916.78;4936967;29;1106;-76
2023/08/17 11:13:01;;;;;;;;;;;;;;;22.08;31.51;97901.56;4920178;29;1603;-75
2023/08/17 11:15:42;;;;;;;;;;;;;;;22.11;31.44;97912.00;4938270;29;6447;-75
2023/08/17 11:18:08;;;;;;;;;;;;;;;22.21;30.99;97924.28;4920777;29;1251;-76
2023/08/17 11:20:34;;;;;;;;;;;;;;;22.27;31.18;97911.91;4920543;29;1996;-77
2023/08/17 11:22:59;;;;;;;;;;;;;;;22.53;30.67;97909.09;4936217;29;1074;-76
2023/08/17 11:25:28;;;;;;;;;;;;;;;22.34;31.19;97922.25;4937405;28;996;-76
2023/08/17 11:27:54;;;;;;;;;;;;;;;22.43;30.90;97915.91;4960347;28;1067;-77
2023/08/17 11:30:22;;;;;;;;;;;;;;;22.53;30.66;97920.44;4960181;28;925;-77
2023/08/17 11:32:52;;;;;;;;;;;;;;;22.25;31.03;97911.59;4959862;28;909;-76
2023/08/17 11:35:17;;;;;;;;;;;;;;;22.03;31.61;97916.28;4959161;28;1598;-76
2023/08/17 11:37:43;;;;;;;;;;;;;;;22.33;31.15;97918.63;4944269;28;925;-75
2023/08/17 11:40:10;;;;;;;;;;;;;;;22.53;30.61;97920.44;4959991;28;1915;-75
2023/08/17 11:42:36;;;;;;;;;;;;;;;22.55;30.49;97913.06;4977514;28;896;-76
2023/08/17 11:45:02;;;;;;;;;;;;;;;22.41;31.03;97924.06;4977090;28;980;-75
2023/08/17 11:47:27;;;;;;;;;;;;;;;22.33;31.15;97912.97;4959716;28;1166;-76
2023/08/17 11:49:58;;;;;;;;;;;;;;;22.15;31.34;97912.69;4958433;28;1763;-76
2023/08/17 11:52:25;;;;;;;;;;;;;;;22.32;31.03;97914.19;4963689;28;1020;-76
2023/08/17 11:54:51;;;;;;;;;;;;;;;22.29;30.86;97917.94;4963889;28;1020;-75
2023/08/17 11:57:16;;;;;;;;;;;;;;;22.42;30.67;97925.66;4946637;28;1004;-76
2023/08/17 11:59:42;;;;;;;;;;;;;;;22.43;30.78;97916.69;4981063;28;1906;-75
2023/08/17 12:02:07;;;;;;;;;;;;;;;22.35;30.86;97916.13;4980815;28;914;-77
2023/08/17 12:04:33;;;;;;;;;;;;;;;22.49;30.22;97914.91;4963084;28;1626;-75
2023/08/17 12:06:59;;;;;;;;;;;;;;;22.31;30.60;97926.78;4963800;28;967;-76
2023/08/17 12:09:24;;;;;;;;;;;;;;;22.61;30.40;97916.13;4980619;28;916;-75
2023/08/17 12:11:54;;;;;;;;;;;;;;;22.46;30.38;97915.00;4947629;28;1229;-75
2023/08/17 12:14:19;;;;;;;;;;;;;;;22.71;30.17;97920.66;4963741;28;887;-76
2023/08/17 12:16:47;;;;;;;;;;;;;;;22.58;30.58;97922.69;4963322;28;933;-76
2023/08/17 12:19:12;;;;;;;;;;;;;;;22.61;30.35;97921.81;4919862;29;1925;-75
2023/08/17 12:21:38;;;;;;;;;;;;;;;22.56;30.32;97913.88;4920336;29;1660;-76
2023/08/17 12:24:07;;;;;;;;;;;;;;;22.18;31.29;97917.47;4920411;29;1041;-75
2023/08/17 12:26:34;;;;;;;;;;;;;;;22.28;30.87;97922.03;4920510;29;987;-76
2023/08/17 12:28:59;;;;;;;;;;;;;;;22.41;30.97;97919.19;4920371;29;1007;-75
2023/08/17 12:31:25;;;;;;;;;;;;;;;22.32;31.02;97928.34;4920686;29;1158;-75
2023/08/17 12:33:51;;;;;;;;;;;;;;;22.54;30.57;97927.72;4920590;29;957;-76
2023/08/17 12:36:17;;;;;;;;;;;;;;;22.39;30.97;97932.25;4919759;29;1642;-75
2023/08/17 12:38:44;;;;;;;;;;;;;;;22.27;31.18;97925.28;4920148;29;941;-75
2023/08/17 12:41:10;;;;;;;;;;;;;;;22.29;30.84;97926.44;4920301;29;1055;-75
2023/08/17 12:43:37;;;;;;;;;;;;;;;22.39;30.84;97933.03;4920519;29;939;-76
2023/08/17 12:46:02;;;;;;;;;;;;;;;22.52;30.64;97919.66;4920280;29;1064;-76
2023/08/17 12:48:28;;;;;;;;;;;;;;;22.56;30.76;97914.66;4920448;29;1005;-76
2023/08/17 12:50:53;;;;;;;;;;;;;;;22.17;31.23;97918.69;4919721;29;1798;-76
2023/08/17 12:53:19;;;;;;;;;;;;;;;22.38;31.07;97919.28;4920383;29;1085;-75
2023/08/17 12:55:44;;;;;;;;;;;;;;;22.17;31.29;97915.06;4927908;28;1147;-75